sensor_id;sensor_type;location;lat;lon;timestamp;temperature;humidity
35700;DHT22;21818;51.078;12.108;2022-07-24T00:00:14;19.40;77.10
35700;DHT22;21818;51.078;12.108;2022-07-24T00:02:41;19.50;77.20
35700;DHT22;21818;51.078;12.108;2022-07-24T00:05:07;19.60;76.70
35700;DHT22;21818;51.078;12.108;2022-07-24T00:07:33;19.80;76.10
35700;DHT22;21818;51.078;12.108;2022-07-24T00:10:00;19.90;75.70
35700;DHT22;21818;51.078;12.108;2022-07-24T00:12:26;19.80;75.50
35700;DHT22;21818;51.078;12.108;2022-07-24T00:14:52;20.00;75.00
35700;DHT22;21818;51.078;12.108;2022-07-24T00:17:17;20.00;74.80
35700;DHT22;21818;51.078;12.108;2022-07-24T00:19:43;19.80;74.80
35700;DHT22;21818;51.078;12.108;2022-07-24T00:22:08;19.70;75.00
35700;DHT22;21818;51.078;12.108;2022-07-24T00:24:34;19.60;74.90
35700;DHT22;21818;51.078;12.108;2022-07-24T00:27:00;19.70;74.60
35700;DHT22;21818;51.078;12.108;2022-07-24T00:29:26;19.70;74.40
35700;DHT22;21818;51.078;12.108;2022-07-24T00:31:52;19.60;74.40
35700;DHT22;21818;51.078;12.108;2022-07-24T00:34:18;19.50;74.20
35700;DHT22;21818;51.078;12.108;2022-07-24T00:36:43;19.50;74.10
35700;DHT22;21818;51.078;12.108;2022-07-24T00:39:09;19.40;74.10
35700;DHT22;21818;51.078;12.108;2022-07-24T00:41:35;19.50;73.70
35700;DHT22;21818;51.078;12.108;2022-07-24T00:46:30;19.40;73.70
35700;DHT22;21818;51.078;12.108;2022-07-24T00:48:55;19.50;73.30
35700;DHT22;21818;51.078;12.108;2022-07-24T00:51:21;19.40;73.20
35700;DHT22;21818;51.078;12.108;2022-07-24T00:53:47;19.50;73.10
35700;DHT22;21818;51.078;12.108;2022-07-24T00:56:13;19.50;72.70
35700;DHT22;21818;51.078;12.108;2022-07-24T00:58:39;19.50;72.70
35700;DHT22;21818;51.078;12.108;2022-07-24T01:01:05;19.60;72.40
35700;DHT22;21818;51.078;12.108;2022-07-24T01:03:30;19.60;72.10
35700;DHT22;21818;51.078;12.108;2022-07-24T01:05:56;19.40;72.50
35700;DHT22;21818;51.078;12.108;2022-07-24T01:08:22;19.20;73.00
35700;DHT22;21818;51.078;12.108;2022-07-24T01:10:48;19.20;73.00
35700;DHT22;21818;51.078;12.108;2022-07-24T01:13:14;19.20;73.20
35700;DHT22;21818;51.078;12.108;2022-07-24T01:15:39;19.30;72.70
35700;DHT22;21818;51.078;12.108;2022-07-24T01:18:05;19.50;72.40
35700;DHT22;21818;51.078;12.108;2022-07-24T01:20:30;19.30;72.70
35700;DHT22;21818;51.078;12.108;2022-07-24T01:22:56;19.00;73.30
35700;DHT22;21818;51.078;12.108;2022-07-24T01:25:21;18.90;73.80
35700;DHT22;21818;51.078;12.108;2022-07-24T01:27:47;18.50;75.10
35700;DHT22;21818;51.078;12.108;2022-07-24T01:30:13;18.30;76.30
35700;DHT22;21818;51.078;12.108;2022-07-24T01:32:38;18.10;77.20
35700;DHT22;21818;51.078;12.108;2022-07-24T01:35:04;17.90;78.10
35700;DHT22;21818;51.078;12.108;2022-07-24T01:37:30;17.90;78.50
35700;DHT22;21818;51.078;12.108;2022-07-24T01:39:56;18.20;77.70
35700;DHT22;21818;51.078;12.108;2022-07-24T01:42:21;18.40;76.50
35700;DHT22;21818;51.078;12.108;2022-07-24T01:44:49;18.60;76.00
35700;DHT22;21818;51.078;12.108;2022-07-24T01:47:15;18.80;75.30
35700;DHT22;21818;51.078;12.108;2022-07-24T01:49:40;19.00;74.70
35700;DHT22;21818;51.078;12.108;2022-07-24T01:52:06;19.00;74.40
35700;DHT22;21818;51.078;12.108;2022-07-24T01:54:31;18.70;74.90
35700;DHT22;21818;51.078;12.108;2022-07-24T01:56:57;18.60;75.50
35700;DHT22;21818;51.078;12.108;2022-07-24T01:59:23;18.70;75.10
35700;DHT22;21818;51.078;12.108;2022-07-24T02:01:48;18.80;75.20
35700;DHT22;21818;51.078;12.108;2022-07-24T02:04:14;18.90;74.80
35700;DHT22;21818;51.078;12.108;2022-07-24T02:06:39;18.90;74.70
35700;DHT22;21818;51.078;12.108;2022-07-24T02:09:05;18.90;74.90
35700;DHT22;21818;51.078;12.108;2022-07-24T02:11:30;18.80;75.10
35700;DHT22;21818;51.078;12.108;2022-07-24T02:13:56;18.70;75.20
35700;DHT22;21818;51.078;12.108;2022-07-24T02:16:22;18.70;75.50
35700;DHT22;21818;51.078;12.108;2022-07-24T02:18:48;18.90;75.20
35700;DHT22;21818;51.078;12.108;2022-07-24T02:21:13;19.00;75.00
35700;DHT22;21818;51.078;12.108;2022-07-24T02:23:39;18.90;75.20
35700;DHT22;21818;51.078;12.108;2022-07-24T02:26:04;18.80;75.50
35700;DHT22;21818;51.078;12.108;2022-07-24T02:28:30;18.80;75.50
35700;DHT22;21818;51.078;12.108;2022-07-24T02:30:56;18.80;75.30
35700;DHT22;21818;51.078;12.108;2022-07-24T02:33:21;18.80;75.20
35700;DHT22;21818;51.078;12.108;2022-07-24T02:35:47;18.70;75.10
35700;DHT22;21818;51.078;12.108;2022-07-24T02:38:13;18.50;75.50
35700;DHT22;21818;51.078;12.108;2022-07-24T02:40:38;18.50;75.60
35700;DHT22;21818;51.078;12.108;2022-07-24T02:43:04;18.60;75.30
35700;DHT22;21818;51.078;12.108;2022-07-24T02:45:29;18.60;75.10
35700;DHT22;21818;51.078;12.108;2022-07-24T02:47:57;18.50;75.20
35700;DHT22;21818;51.078;12.108;2022-07-24T02:50:25;18.50;75.20
35700;DHT22;21818;51.078;12.108;2022-07-24T02:52:51;18.30;75.70
35700;DHT22;21818;51.078;12.108;2022-07-24T02:55:17;18.30;75.80
35700;DHT22;21818;51.078;12.108;2022-07-24T02:57:43;18.30;75.80
35700;DHT22;21818;51.078;12.108;2022-07-24T03:00:12;18.20;75.70
35700;DHT22;21818;51.078;12.108;2022-07-24T03:02:38;18.40;75.40
35700;DHT22;21818;51.078;12.108;2022-07-24T03:05:05;18.30;75.40
35700;DHT22;21818;51.078;12.108;2022-07-24T03:07:31;18.30;75.50
35700;DHT22;21818;51.078;12.108;2022-07-24T03:09:57;18.40;75.40
35700;DHT22;21818;51.078;12.108;2022-07-24T03:12:22;18.50;75.20
35700;DHT22;21818;51.078;12.108;2022-07-24T03:14:48;18.40;75.40
35700;DHT22;21818;51.078;12.108;2022-07-24T03:17:14;18.40;75.40
35700;DHT22;21818;51.078;12.108;2022-07-24T03:19:39;18.30;75.90
35700;DHT22;21818;51.078;12.108;2022-07-24T03:22:05;18.10;76.20
35700;DHT22;21818;51.078;12.108;2022-07-24T03:24:30;18.10;76.40
35700;DHT22;21818;51.078;12.108;2022-07-24T03:26:56;18.20;76.30
35700;DHT22;21818;51.078;12.108;2022-07-24T03:29:22;18.00;76.50
35700;DHT22;21818;51.078;12.108;2022-07-24T03:31:47;18.00;76.70
35700;DHT22;21818;51.078;12.108;2022-07-24T03:34:13;18.00;76.70
35700;DHT22;21818;51.078;12.108;2022-07-24T03:36:39;18.00;76.80
35700;DHT22;21818;51.078;12.108;2022-07-24T03:39:05;18.10;76.60
35700;DHT22;21818;51.078;12.108;2022-07-24T03:41:31;18.10;76.50
35700;DHT22;21818;51.078;12.108;2022-07-24T03:43:57;17.90;77.00
35700;DHT22;21818;51.078;12.108;2022-07-24T03:46:22;17.90;77.40
35700;DHT22;21818;51.078;12.108;2022-07-24T03:48:48;18.10;76.90
35700;DHT22;21818;51.078;12.108;2022-07-24T03:51:14;18.10;77.00
35700;DHT22;21818;51.078;12.108;2022-07-24T03:53:39;18.10;76.90
35700;DHT22;21818;51.078;12.108;2022-07-24T03:56:09;18.20;76.80
35700;DHT22;21818;51.078;12.108;2022-07-24T03:58:35;18.20;76.90
35700;DHT22;21818;51.078;12.108;2022-07-24T04:01:02;18.20;76.50
35700;DHT22;21818;51.078;12.108;2022-07-24T04:03:27;18.20;76.50
35700;DHT22;21818;51.078;12.108;2022-07-24T04:05:53;18.00;76.90
35700;DHT22;21818;51.078;12.108;2022-07-24T04:08:18;17.90;77.00
35700;DHT22;21818;51.078;12.108;2022-07-24T04:10:44;18.00;76.90
35700;DHT22;21818;51.078;12.108;2022-07-24T04:13:10;17.90;77.00
35700;DHT22;21818;51.078;12.108;2022-07-24T04:15:35;18.00;77.00
35700;DHT22;21818;51.078;12.108;2022-07-24T04:18:01;18.00;77.10
35700;DHT22;21818;51.078;12.108;2022-07-24T04:20:27;18.00;76.90
35700;DHT22;21818;51.078;12.108;2022-07-24T04:22:52;18.00;77.00
35700;DHT22;21818;51.078;12.108;2022-07-24T04:25:19;17.90;77.30
35700;DHT22;21818;51.078;12.108;2022-07-24T04:27:45;17.90;77.30
35700;DHT22;21818;51.078;12.108;2022-07-24T04:30:11;17.80;77.50
35700;DHT22;21818;51.078;12.108;2022-07-24T04:32:37;17.90;77.50
35700;DHT22;21818;51.078;12.108;2022-07-24T04:35:04;18.00;77.30
35700;DHT22;21818;51.078;12.108;2022-07-24T04:37:30;18.00;76.90
35700;DHT22;21818;51.078;12.108;2022-07-24T04:39:56;18.10;76.90
35700;DHT22;21818;51.078;12.108;2022-07-24T04:42:21;17.90;77.20
35700;DHT22;21818;51.078;12.108;2022-07-24T04:44:47;17.90;77.60
35700;DHT22;21818;51.078;12.108;2022-07-24T04:47:12;17.80;77.70
35700;DHT22;21818;51.078;12.108;2022-07-24T04:49:38;17.60;78.30
35700;DHT22;21818;51.078;12.108;2022-07-24T04:52:04;17.60;78.50
35700;DHT22;21818;51.078;12.108;2022-07-24T04:54:29;17.70;78.50
35700;DHT22;21818;51.078;12.108;2022-07-24T04:56:55;17.90;78.10
35700;DHT22;21818;51.078;12.108;2022-07-24T04:59:21;18.10;77.60
35700;DHT22;21818;51.078;12.108;2022-07-24T05:01:46;18.10;77.80
35700;DHT22;21818;51.078;12.108;2022-07-24T05:04:12;18.10;77.90
35700;DHT22;21818;51.078;12.108;2022-07-24T05:06:37;18.30;77.70
35700;DHT22;21818;51.078;12.108;2022-07-24T05:09:03;18.40;77.50
35700;DHT22;21818;51.078;12.108;2022-07-24T05:11:28;18.50;77.20
35700;DHT22;21818;51.078;12.108;2022-07-24T05:13:54;18.60;76.90
35700;DHT22;21818;51.078;12.108;2022-07-24T05:16:20;18.50;77.30
35700;DHT22;21818;51.078;12.108;2022-07-24T05:18:46;18.60;77.30
35700;DHT22;21818;51.078;12.108;2022-07-24T05:21:11;18.50;77.50
35700;DHT22;21818;51.078;12.108;2022-07-24T05:23:39;18.50;77.80
35700;DHT22;21818;51.078;12.108;2022-07-24T05:26:06;18.60;77.70
35700;DHT22;21818;51.078;12.108;2022-07-24T05:28:32;18.80;77.50
35700;DHT22;21818;51.078;12.108;2022-07-24T05:30:57;18.90;77.30
35700;DHT22;21818;51.078;12.108;2022-07-24T05:33:23;18.90;77.40
35700;DHT22;21818;51.078;12.108;2022-07-24T05:35:48;18.90;77.40
35700;DHT22;21818;51.078;12.108;2022-07-24T05:38:14;18.90;77.60
35700;DHT22;21818;51.078;12.108;2022-07-24T05:40:41;19.00;77.60
35700;DHT22;21818;51.078;12.108;2022-07-24T05:43:07;19.00;77.50
35700;DHT22;21818;51.078;12.108;2022-07-24T05:45:32;19.10;77.60
35700;DHT22;21818;51.078;12.108;2022-07-24T05:47:58;19.50;76.30
35700;DHT22;21818;51.078;12.108;2022-07-24T05:50:23;20.10;74.80
35700;DHT22;21818;51.078;12.108;2022-07-24T05:52:49;20.50;73.40
35700;DHT22;21818;51.078;12.108;2022-07-24T05:55:14;20.90;72.40
35700;DHT22;21818;51.078;12.108;2022-07-24T05:57:40;21.10;71.70
35700;DHT22;21818;51.078;12.108;2022-07-24T06:00:06;21.30;71.10
35700;DHT22;21818;51.078;12.108;2022-07-24T06:02:32;21.40;70.70
35700;DHT22;21818;51.078;12.108;2022-07-24T06:04:57;21.60;70.40
35700;DHT22;21818;51.078;12.108;2022-07-24T06:07:23;21.60;70.00
35700;DHT22;21818;51.078;12.108;2022-07-24T06:09:48;21.80;69.90
35700;DHT22;21818;51.078;12.108;2022-07-24T06:12:17;21.80;69.60
35700;DHT22;21818;51.078;12.108;2022-07-24T06:14:43;21.80;69.30
35700;DHT22;21818;51.078;12.108;2022-07-24T06:17:08;21.90;69.20
35700;DHT22;21818;51.078;12.108;2022-07-24T06:19:34;21.90;69.00
35700;DHT22;21818;51.078;12.108;2022-07-24T06:21:59;22.00;68.90
35700;DHT22;21818;51.078;12.108;2022-07-24T06:24:25;22.00;68.70
35700;DHT22;21818;51.078;12.108;2022-07-24T06:26:50;22.10;68.70
35700;DHT22;21818;51.078;12.108;2022-07-24T06:29:16;22.10;68.60
35700;DHT22;21818;51.078;12.108;2022-07-24T06:31:41;22.10;68.50
35700;DHT22;21818;51.078;12.108;2022-07-24T06:34:07;22.20;68.40
35700;DHT22;21818;51.078;12.108;2022-07-24T06:36:32;22.20;68.30
35700;DHT22;21818;51.078;12.108;2022-07-24T06:38:58;22.20;68.20
35700;DHT22;21818;51.078;12.108;2022-07-24T06:41:23;22.20;68.10
35700;DHT22;21818;51.078;12.108;2022-07-24T06:43:49;22.30;68.00
35700;DHT22;21818;51.078;12.108;2022-07-24T06:46:14;22.30;67.90
35700;DHT22;21818;51.078;12.108;2022-07-24T06:48:40;22.30;67.90
35700;DHT22;21818;51.078;12.108;2022-07-24T06:51:06;22.30;67.80
35700;DHT22;21818;51.078;12.108;2022-07-24T06:53:31;22.40;67.70
35700;DHT22;21818;51.078;12.108;2022-07-24T06:55:57;22.40;67.70
35700;DHT22;21818;51.078;12.108;2022-07-24T06:58:22;22.40;67.50
35700;DHT22;21818;51.078;12.108;2022-07-24T07:00:48;22.40;67.50
35700;DHT22;21818;51.078;12.108;2022-07-24T07:03:16;22.50;67.40
35700;DHT22;21818;51.078;12.108;2022-07-24T07:05:42;22.50;67.40
35700;DHT22;21818;51.078;12.108;2022-07-24T07:08:08;22.50;67.30
35700;DHT22;21818;51.078;12.108;2022-07-24T07:10:33;22.50;67.20
35700;DHT22;21818;51.078;12.108;2022-07-24T07:12:59;22.50;67.20
35700;DHT22;21818;51.078;12.108;2022-07-24T07:15:25;22.60;67.10
35700;DHT22;21818;51.078;12.108;2022-07-24T07:17:50;22.60;67.10
35700;DHT22;21818;51.078;12.108;2022-07-24T07:20:16;22.60;67.00
35700;DHT22;21818;51.078;12.108;2022-07-24T07:22:42;22.60;66.90
35700;DHT22;21818;51.078;12.108;2022-07-24T07:25:08;22.60;66.90
35700;DHT22;21818;51.078;12.108;2022-07-24T07:27:35;22.70;66.80
35700;DHT22;21818;51.078;12.108;2022-07-24T07:30:03;22.70;66.80
35700;DHT22;21818;51.078;12.108;2022-07-24T07:32:30;22.70;66.70
35700;DHT22;21818;51.078;12.108;2022-07-24T07:34:55;22.70;66.60
35700;DHT22;21818;51.078;12.108;2022-07-24T07:37:21;22.70;66.60
35700;DHT22;21818;51.078;12.108;2022-07-24T07:39:46;22.70;66.50
35700;DHT22;21818;51.078;12.108;2022-07-24T07:42:12;22.80;66.50
35700;DHT22;21818;51.078;12.108;2022-07-24T07:44:37;22.80;66.40
35700;DHT22;21818;51.078;12.108;2022-07-24T07:47:03;22.80;66.40
35700;DHT22;21818;51.078;12.108;2022-07-24T07:49:29;22.80;66.30
35700;DHT22;21818;51.078;12.108;2022-07-24T07:51:54;22.80;66.30
35700;DHT22;21818;51.078;12.108;2022-07-24T07:54:20;22.80;66.20
35700;DHT22;21818;51.078;12.108;2022-07-24T07:56:45;22.90;66.20
35700;DHT22;21818;51.078;12.108;2022-07-24T07:59:11;22.90;66.20
35700;DHT22;21818;51.078;12.108;2022-07-24T08:01:36;22.90;66.10
35700;DHT22;21818;51.078;12.108;2022-07-24T08:04:03;22.90;66.00
35700;DHT22;21818;51.078;12.108;2022-07-24T08:06:28;22.90;66.00
35700;DHT22;21818;51.078;12.108;2022-07-24T08:08:54;22.90;65.90
35700;DHT22;21818;51.078;12.108;2022-07-24T08:11:20;22.90;65.80
35700;DHT22;21818;51.078;12.108;2022-07-24T08:13:45;23.00;65.90
35700;DHT22;21818;51.078;12.108;2022-07-24T08:16:11;23.00;65.80
35700;DHT22;21818;51.078;12.108;2022-07-24T08:18:37;23.00;65.70
35700;DHT22;21818;51.078;12.108;2022-07-24T08:21:03;23.00;65.70
35700;DHT22;21818;51.078;12.108;2022-07-24T08:23:29;23.00;66.10
35700;DHT22;21818;51.078;12.108;2022-07-24T08:25:54;23.00;65.60
35700;DHT22;21818;51.078;12.108;2022-07-24T08:28:20;23.10;65.60
35700;DHT22;21818;51.078;12.108;2022-07-24T08:30:48;23.10;65.60
35700;DHT22;21818;51.078;12.108;2022-07-24T08:33:14;23.10;65.50
35700;DHT22;21818;51.078;12.108;2022-07-24T08:35:39;23.10;65.50
35700;DHT22;21818;51.078;12.108;2022-07-24T08:38:05;23.10;65.40
35700;DHT22;21818;51.078;12.108;2022-07-24T08:40:38;23.10;65.40
35700;DHT22;21818;51.078;12.108;2022-07-24T08:43:05;23.10;65.30
35700;DHT22;21818;51.078;12.108;2022-07-24T08:45:37;23.10;65.50
35700;DHT22;21818;51.078;12.108;2022-07-24T08:48:06;23.20;65.40
35700;DHT22;21818;51.078;12.108;2022-07-24T08:50:33;23.20;65.20
35700;DHT22;21818;51.078;12.108;2022-07-24T08:52:59;23.20;65.20
35700;DHT22;21818;51.078;12.108;2022-07-24T08:55:28;23.20;65.10
35700;DHT22;21818;51.078;12.108;2022-07-24T08:57:58;23.20;65.10
35700;DHT22;21818;51.078;12.108;2022-07-24T09:00:25;23.20;65.10
35700;DHT22;21818;51.078;12.108;2022-07-24T09:02:52;23.20;65.00
35700;DHT22;21818;51.078;12.108;2022-07-24T09:05:17;23.20;65.00
35700;DHT22;21818;51.078;12.108;2022-07-24T09:07:43;23.20;64.90
35700;DHT22;21818;51.078;12.108;2022-07-24T09:10:11;23.30;65.00
35700;DHT22;21818;51.078;12.108;2022-07-24T09:12:41;23.20;64.80
35700;DHT22;21818;51.078;12.108;2022-07-24T09:17:51;23.30;64.80
35700;DHT22;21818;51.078;12.108;2022-07-24T09:20:18;23.30;64.80
35700;DHT22;21818;51.078;12.108;2022-07-24T09:22:44;23.30;64.80
35700;DHT22;21818;51.078;12.108;2022-07-24T09:25:18;23.30;64.70
35700;DHT22;21818;51.078;12.108;2022-07-24T09:33:03;23.30;64.60
35700;DHT22;21818;51.078;12.108;2022-07-24T09:37:57;23.40;64.60
35700;DHT22;21818;51.078;12.108;2022-07-24T09:40:29;23.40;64.60
35700;DHT22;21818;51.078;12.108;2022-07-24T09:48:56;23.40;64.30
35700;DHT22;21818;51.078;12.108;2022-07-24T09:51:23;23.40;64.30
35700;DHT22;21818;51.078;12.108;2022-07-24T09:53:54;23.40;64.30
35700;DHT22;21818;51.078;12.108;2022-07-24T09:56:21;23.50;64.30
35700;DHT22;21818;51.078;12.108;2022-07-24T10:01:14;23.50;64.30
35700;DHT22;21818;51.078;12.108;2022-07-24T10:03:42;23.50;64.10
35700;DHT22;21818;51.078;12.108;2022-07-24T10:06:11;23.50;64.00
35700;DHT22;21818;51.078;12.108;2022-07-24T10:08:39;23.50;63.90
35700;DHT22;21818;51.078;12.108;2022-07-24T10:11:05;23.50;63.90
35700;DHT22;21818;51.078;12.108;2022-07-24T10:13:31;23.50;63.90
35700;DHT22;21818;51.078;12.108;2022-07-24T10:18:52;23.50;63.80
35700;DHT22;21818;51.078;12.108;2022-07-24T10:21:23;23.50;63.70
35700;DHT22;21818;51.078;12.108;2022-07-24T10:26:46;23.60;63.70
35700;DHT22;21818;51.078;12.108;2022-07-24T10:29:22;23.60;63.60
35700;DHT22;21818;51.078;12.108;2022-07-24T10:31:51;23.60;63.60
35700;DHT22;21818;51.078;12.108;2022-07-24T10:37:06;23.60;63.60
35700;DHT22;21818;51.078;12.108;2022-07-24T10:42:26;23.60;63.60
35700;DHT22;21818;51.078;12.108;2022-07-24T10:45:13;23.60;63.60
35700;DHT22;21818;51.078;12.108;2022-07-24T10:47:39;23.60;63.60
35700;DHT22;21818;51.078;12.108;2022-07-24T10:50:05;23.60;63.60
35700;DHT22;21818;51.078;12.108;2022-07-24T10:52:31;23.60;63.60
35700;DHT22;21818;51.078;12.108;2022-07-24T10:55:33;23.60;63.50
35700;DHT22;21818;51.078;12.108;2022-07-24T10:58:13;23.70;63.60
35700;DHT22;21818;51.078;12.108;2022-07-24T11:00:50;23.70;63.60
35700;DHT22;21818;51.078;12.108;2022-07-24T11:03:28;23.70;63.50
35700;DHT22;21818;51.078;12.108;2022-07-24T11:06:11;23.70;63.50
35700;DHT22;21818;51.078;12.108;2022-07-24T11:11:08;23.70;63.50
35700;DHT22;21818;51.078;12.108;2022-07-24T11:21:36;23.70;63.40
35700;DHT22;21818;51.078;12.108;2022-07-24T11:26:40;23.80;63.40
35700;DHT22;21818;51.078;12.108;2022-07-24T11:31:53;23.80;63.30
35700;DHT22;21818;51.078;12.108;2022-07-24T11:34:20;23.80;63.30
35700;DHT22;21818;51.078;12.108;2022-07-24T11:36:48;23.80;63.20
35700;DHT22;21818;51.078;12.108;2022-07-24T11:39:15;23.80;63.20
35700;DHT22;21818;51.078;12.108;2022-07-24T11:41:51;23.80;63.20
35700;DHT22;21818;51.078;12.108;2022-07-24T11:44:25;23.90;63.20
35700;DHT22;21818;51.078;12.108;2022-07-24T11:46:51;23.90;63.20
35700;DHT22;21818;51.078;12.108;2022-07-24T11:49:17;23.90;63.70
35700;DHT22;21818;51.078;12.108;2022-07-24T11:51:44;23.90;63.10
35700;DHT22;21818;51.078;12.108;2022-07-24T11:54:12;23.90;63.10
35700;DHT22;21818;51.078;12.108;2022-07-24T11:56:38;23.90;63.10
35700;DHT22;21818;51.078;12.108;2022-07-24T11:59:04;23.90;63.10
35700;DHT22;21818;51.078;12.108;2022-07-24T12:01:30;23.90;63.00
35700;DHT22;21818;51.078;12.108;2022-07-24T12:03:59;23.90;63.00
35700;DHT22;21818;51.078;12.108;2022-07-24T12:06:26;23.90;62.90
35700;DHT22;21818;51.078;12.108;2022-07-24T12:08:57;23.90;62.90
35700;DHT22;21818;51.078;12.108;2022-07-24T12:11:23;24.00;62.90
35700;DHT22;21818;51.078;12.108;2022-07-24T12:13:49;24.00;62.90
35700;DHT22;21818;51.078;12.108;2022-07-24T12:16:24;24.00;62.90
35700;DHT22;21818;51.078;12.108;2022-07-24T12:18:50;24.00;62.80
35700;DHT22;21818;51.078;12.108;2022-07-24T12:21:15;24.00;62.80
35700;DHT22;21818;51.078;12.108;2022-07-24T12:23:45;24.00;62.80
35700;DHT22;21818;51.078;12.108;2022-07-24T12:26:10;24.00;62.70
35700;DHT22;21818;51.078;12.108;2022-07-24T12:28:36;24.00;62.70
35700;DHT22;21818;51.078;12.108;2022-07-24T12:31:06;24.00;62.70
35700;DHT22;21818;51.078;12.108;2022-07-24T12:33:35;24.00;62.60
35700;DHT22;21818;51.078;12.108;2022-07-24T12:36:06;24.00;62.60
35700;DHT22;21818;51.078;12.108;2022-07-24T12:38:49;24.10;62.60
35700;DHT22;21818;51.078;12.108;2022-07-24T12:41:17;24.10;62.60
35700;DHT22;21818;51.078;12.108;2022-07-24T12:46:24;24.10;62.50
35700;DHT22;21818;51.078;12.108;2022-07-24T12:48:57;24.10;62.50
35700;DHT22;21818;51.078;12.108;2022-07-24T12:51:23;24.10;62.40
35700;DHT22;21818;51.078;12.108;2022-07-24T12:53:53;24.20;62.40
35700;DHT22;21818;51.078;12.108;2022-07-24T12:56:19;24.10;62.30
35700;DHT22;21818;51.078;12.108;2022-07-24T12:59:01;24.20;62.30
35700;DHT22;21818;51.078;12.108;2022-07-24T13:01:49;24.20;62.30
35700;DHT22;21818;51.078;12.108;2022-07-24T13:04:19;24.20;62.20
35700;DHT22;21818;51.078;12.108;2022-07-24T13:06:50;24.20;62.20
35700;DHT22;21818;51.078;12.108;2022-07-24T13:09:17;24.20;62.20
35700;DHT22;21818;51.078;12.108;2022-07-24T13:11:44;24.30;62.20
35700;DHT22;21818;51.078;12.108;2022-07-24T13:14:11;24.30;62.10
35700;DHT22;21818;51.078;12.108;2022-07-24T13:16:40;24.30;62.10
35700;DHT22;21818;51.078;12.108;2022-07-24T13:19:06;24.30;62.00
35700;DHT22;21818;51.078;12.108;2022-07-24T13:21:33;24.30;62.00
35700;DHT22;21818;51.078;12.108;2022-07-24T13:23:59;24.30;61.90
35700;DHT22;21818;51.078;12.108;2022-07-24T13:26:25;24.40;62.00
35700;DHT22;21818;51.078;12.108;2022-07-24T13:28:51;24.40;61.90
35700;DHT22;21818;51.078;12.108;2022-07-24T13:31:17;24.40;61.80
35700;DHT22;21818;51.078;12.108;2022-07-24T13:33:48;24.40;61.80
35700;DHT22;21818;51.078;12.108;2022-07-24T13:36:15;24.50;61.80
35700;DHT22;21818;51.078;12.108;2022-07-24T13:38:41;24.50;61.80
35700;DHT22;21818;51.078;12.108;2022-07-24T13:41:06;24.50;61.70
35700;DHT22;21818;51.078;12.108;2022-07-24T13:43:32;24.50;61.70
35700;DHT22;21818;51.078;12.108;2022-07-24T13:45:57;24.50;61.60
35700;DHT22;21818;51.078;12.108;2022-07-24T13:48:23;24.50;61.60
35700;DHT22;21818;51.078;12.108;2022-07-24T13:50:49;24.60;61.60
35700;DHT22;21818;51.078;12.108;2022-07-24T13:53:15;24.60;61.60
35700;DHT22;21818;51.078;12.108;2022-07-24T13:55:40;24.60;62.10
35700;DHT22;21818;51.078;12.108;2022-07-24T13:58:06;24.60;61.50
35700;DHT22;21818;51.078;12.108;2022-07-24T14:00:32;24.60;61.40
35700;DHT22;21818;51.078;12.108;2022-07-24T14:02:58;24.60;61.40
35700;DHT22;21818;51.078;12.108;2022-07-24T14:05:27;24.70;61.40
35700;DHT22;21818;51.078;12.108;2022-07-24T14:07:53;24.60;61.30
35700;DHT22;21818;51.078;12.108;2022-07-24T14:10:20;24.70;61.30
35700;DHT22;21818;51.078;12.108;2022-07-24T14:12:46;24.70;61.30
35700;DHT22;21818;51.078;12.108;2022-07-24T14:15:13;24.80;61.30
35700;DHT22;21818;51.078;12.108;2022-07-24T14:17:39;24.80;61.20
35700;DHT22;21818;51.078;12.108;2022-07-24T14:20:05;24.80;61.20
35700;DHT22;21818;51.078;12.108;2022-07-24T14:22:37;24.80;61.10
35700;DHT22;21818;51.078;12.108;2022-07-24T14:25:03;24.80;61.10
35700;DHT22;21818;51.078;12.108;2022-07-24T14:27:29;24.80;61.00
35700;DHT22;21818;51.078;12.108;2022-07-24T14:29:55;24.90;61.00
35700;DHT22;21818;51.078;12.108;2022-07-24T14:32:21;24.90;60.90
35700;DHT22;21818;51.078;12.108;2022-07-24T14:34:46;24.90;60.90
35700;DHT22;21818;51.078;12.108;2022-07-24T14:37:12;24.90;60.80
35700;DHT22;21818;51.078;12.108;2022-07-24T14:39:37;25.00;60.80
35700;DHT22;21818;51.078;12.108;2022-07-24T14:42:03;25.00;60.80
35700;DHT22;21818;51.078;12.108;2022-07-24T14:44:29;25.00;61.30
35700;DHT22;21818;51.078;12.108;2022-07-24T14:46:54;25.00;60.70
35700;DHT22;21818;51.078;12.108;2022-07-24T14:49:20;25.00;60.60
35700;DHT22;21818;51.078;12.108;2022-07-24T14:51:46;25.00;60.60
35700;DHT22;21818;51.078;12.108;2022-07-24T14:54:12;25.10;60.60
35700;DHT22;21818;51.078;12.108;2022-07-24T14:56:38;25.10;60.60
35700;DHT22;21818;51.078;12.108;2022-07-24T14:59:04;25.10;60.50
35700;DHT22;21818;51.078;12.108;2022-07-24T15:01:30;25.10;60.40
35700;DHT22;21818;51.078;12.108;2022-07-24T15:03:56;25.10;60.40
35700;DHT22;21818;51.078;12.108;2022-07-24T15:06:21;25.20;60.40
35700;DHT22;21818;51.078;12.108;2022-07-24T15:08:47;25.10;60.30
35700;DHT22;21818;51.078;12.108;2022-07-24T15:11:13;25.20;60.30
35700;DHT22;21818;51.078;12.108;2022-07-24T15:13:39;25.20;60.30
35700;DHT22;21818;51.078;12.108;2022-07-24T15:16:06;25.20;60.20
35700;DHT22;21818;51.078;12.108;2022-07-24T15:18:32;25.30;60.20
35700;DHT22;21818;51.078;12.108;2022-07-24T15:20:58;25.30;60.20
35700;DHT22;21818;51.078;12.108;2022-07-24T15:23:24;25.30;60.10
35700;DHT22;21818;51.078;12.108;2022-07-24T15:25:49;25.30;60.10
35700;DHT22;21818;51.078;12.108;2022-07-24T15:28:15;25.30;60.10
35700;DHT22;21818;51.078;12.108;2022-07-24T15:30:41;25.30;60.00
35700;DHT22;21818;51.078;12.108;2022-07-24T15:33:06;25.40;60.00
35700;DHT22;21818;51.078;12.108;2022-07-24T15:35:32;25.40;60.00
35700;DHT22;21818;51.078;12.108;2022-07-24T15:37:58;25.40;60.00
35700;DHT22;21818;51.078;12.108;2022-07-24T15:40:23;25.40;59.90
35700;DHT22;21818;51.078;12.108;2022-07-24T15:42:55;25.40;59.90
35700;DHT22;21818;51.078;12.108;2022-07-24T15:45:20;25.40;59.80
35700;DHT22;21818;51.078;12.108;2022-07-24T15:47:47;25.50;59.80
35700;DHT22;21818;51.078;12.108;2022-07-24T15:50:12;25.50;59.80
35700;DHT22;21818;51.078;12.108;2022-07-24T15:52:39;25.50;59.70
35700;DHT22;21818;51.078;12.108;2022-07-24T15:55:05;25.50;59.70
35700;DHT22;21818;51.078;12.108;2022-07-24T15:57:31;25.50;59.60
35700;DHT22;21818;51.078;12.108;2022-07-24T15:59:56;25.60;59.70
35700;DHT22;21818;51.078;12.108;2022-07-24T16:02:22;25.60;59.70